createdAt,value
2023-05-07T00:01:08.014Z,79.35
2023-05-07T00:03:35.181Z,80.42
2023-05-07T00:06:04.647Z,79.02
2023-05-07T00:08:31.780Z,77.65
2023-05-07T00:10:58.936Z,78.47
2023-05-07T00:13:26.114Z,78.16
2023-05-07T00:15:53.207Z,78.46
2023-05-07T00:18:23.387Z,78.00
2023-05-07T00:20:50.595Z,78.76
2023-05-07T00:23:17.820Z,78.69
2023-05-07T00:25:44.875Z,77.76
2023-05-07T00:28:14.146Z,79.58
2023-05-07T00:30:41.195Z,79.19
2023-05-07T00:33:08.325Z,79.09
2023-05-07T00:35:35.499Z,79.04
2023-05-07T00:38:02.583Z,78.83
2023-05-07T00:40:29.656Z,78.42
2023-05-07T00:42:58.943Z,79.07
2023-05-07T00:45:29.523Z,79.44
2023-05-07T00:48:02.473Z,80.00
2023-05-07T00:50:30.754Z,80.53
2023-05-07T00:52:58.140Z,79.62
2023-05-07T00:55:25.644Z,79.33
2023-05-07T00:57:53.194Z,79.54
2023-05-07T01:00:20.921Z,78.71
2023-05-07T01:02:48.354Z,78.05
2023-05-07T01:05:19.752Z,78.81
2023-05-07T01:07:48.417Z,79.00
2023-05-07T01:10:15.918Z,78.75
2023-05-07T01:12:44.663Z,80.00
2023-05-07T01:15:12.531Z,78.55
2023-05-07T01:17:43.517Z,79.57
2023-05-07T01:20:12.065Z,79.10
2023-05-07T01:22:40.897Z,78.21
2023-05-07T01:25:09.369Z,80.15
2023-05-07T01:27:38.087Z,78.82
2023-05-07T01:30:06.773Z,78.22
2023-05-07T01:33:09.254Z,78.40
2023-05-07T01:35:46.378Z,77.44
2023-05-07T01:38:14.277Z,77.68
2023-05-07T01:40:41.822Z,76.37
2023-05-07T01:43:10.024Z,76.13
2023-05-07T01:45:38.229Z,76.23
2023-05-07T01:48:05.863Z,76.51
2023-05-07T01:50:33.571Z,78.08
2023-05-07T01:53:02.086Z,78.33
2023-05-07T01:55:29.235Z,77.19
2023-05-07T01:57:56.545Z,76.64
2023-05-07T02:00:24.155Z,76.55
2023-05-07T02:02:51.407Z,77.37
2023-05-07T02:05:18.604Z,76.48
2023-05-07T02:07:45.634Z,76.01
2023-05-07T02:10:12.764Z,76.59
2023-05-07T02:12:40.168Z,78.05
2023-05-07T02:15:08.194Z,77.55
2023-05-07T02:17:36.270Z,78.13
2023-05-07T02:20:04.745Z,78.56
2023-05-07T02:22:31.799Z,78.56
2023-05-07T02:24:58.893Z,77.96
2023-05-07T02:27:26.030Z,77.94
2023-05-07T02:29:53.068Z,76.92
2023-05-07T02:32:20.748Z,76.74
2023-05-07T02:34:47.863Z,76.44
2023-05-07T02:37:14.909Z,74.95
2023-05-07T02:39:42.015Z,77.29
2023-05-07T02:42:09.047Z,75.99
2023-05-07T02:44:36.592Z,75.58
2023-05-07T02:47:03.663Z,77.33
2023-05-07T02:49:30.806Z,78.19
2023-05-07T02:51:57.857Z,75.59
2023-05-07T02:54:24.968Z,75.65
2023-05-07T02:56:53.113Z,76.80
2023-05-07T02:59:20.179Z,76.92
2023-05-07T03:01:47.316Z,77.63
2023-05-07T03:04:14.456Z,77.68
2023-05-07T03:06:41.598Z,77.04
2023-05-07T03:09:11.965Z,76.09
2023-05-07T03:11:39.330Z,76.41
2023-05-07T03:14:06.424Z,78.14
2023-05-07T03:16:33.945Z,76.36
2023-05-07T03:19:03.480Z,77.30
2023-05-07T03:21:31.610Z,75.83
2023-05-07T03:23:58.695Z,77.34
2023-05-07T03:26:26.278Z,77.40
2023-05-07T03:28:53.560Z,78.06
2023-05-07T03:31:20.887Z,78.13
2023-05-07T03:33:58.818Z,78.84
2023-05-07T03:36:27.832Z,77.43
2023-05-07T03:38:55.089Z,76.64
2023-05-07T03:41:22.429Z,76.25
2023-05-07T03:43:49.769Z,77.39
2023-05-07T03:46:16.871Z,76.80
2023-05-07T03:48:43.995Z,77.86
2023-05-07T03:51:11.113Z,77.58
2023-05-07T03:53:38.198Z,77.84
2023-05-07T03:56:06.139Z,79.41
2023-05-07T03:58:33.249Z,77.14
2023-05-07T04:01:00.347Z,77.24
2023-05-07T04:03:28.731Z,75.03
2023-05-07T04:05:56.040Z,76.24
2023-05-07T04:08:23.132Z,75.67
2023-05-07T04:10:59.122Z,76.78
2023-05-07T04:13:28.236Z,79.02
2023-05-07T04:15:57.210Z,77.65
2023-05-07T04:18:24.309Z,77.46
2023-05-07T04:20:51.459Z,77.80
2023-05-07T04:23:18.618Z,76.47
2023-05-07T04:25:46.255Z,77.20
2023-05-07T04:28:13.829Z,75.45
2023-05-07T04:30:42.223Z,74.92
2023-05-07T04:33:09.574Z,76.03
2023-05-07T04:35:37.339Z,76.27
2023-05-07T04:38:04.635Z,76.35
2023-05-07T04:40:31.657Z,75.30
2023-05-07T04:42:58.709Z,74.72
2023-05-07T04:45:25.832Z,75.91
2023-05-07T04:47:52.914Z,73.78
2023-05-07T04:50:20.835Z,74.06
2023-05-07T04:52:47.921Z,76.27
2023-05-07T04:55:15.003Z,74.81
2023-05-07T04:57:42.371Z,75.71
2023-05-07T05:00:10.424Z,71.40
2023-05-07T05:02:37.866Z,72.48
2023-05-07T05:05:05.749Z,74.48
2023-05-07T05:07:32.940Z,72.40
2023-05-07T05:10:00.456Z,72.44
2023-05-07T05:12:27.578Z,74.21
2023-05-07T05:14:55.194Z,73.77
2023-05-07T05:17:22.278Z,71.13
2023-05-07T05:19:49.380Z,73.71
2023-05-07T05:22:17.472Z,72.65
2023-05-07T05:24:44.544Z,69.54
2023-05-07T05:27:11.779Z,72.55
2023-05-07T05:29:38.936Z,69.85
2023-05-07T05:32:06.199Z,71.40
2023-05-07T05:34:34.318Z,73.62
2023-05-07T05:37:01.496Z,73.78
2023-05-07T05:39:28.613Z,70.88
2023-05-07T05:41:55.776Z,70.46
2023-05-07T05:44:22.917Z,69.55
2023-05-07T05:46:50.811Z,68.56
2023-05-07T05:49:18.067Z,70.75
2023-05-07T05:51:45.356Z,70.14
2023-05-07T05:54:12.412Z,73.48
2023-05-07T05:56:39.625Z,72.86
2023-05-07T05:59:06.990Z,72.97
2023-05-07T06:01:34.221Z,71.42
2023-05-07T06:04:01.316Z,68.57
2023-05-07T06:06:29.083Z,68.23
2023-05-07T06:08:56.140Z,70.72
2023-05-07T06:11:23.282Z,72.88
2023-05-07T06:13:50.379Z,70.97
2023-05-07T06:16:17.504Z,69.01
2023-05-07T06:18:46.300Z,72.30
2023-05-07T06:21:15.856Z,68.00
2023-05-07T06:23:42.958Z,67.39
2023-05-07T06:26:10.020Z,69.06
2023-05-07T06:28:37.161Z,70.30
2023-05-07T06:31:16.903Z,71.45
2023-05-07T06:33:46.104Z,71.24
2023-05-07T06:36:13.911Z,70.54
2023-05-07T06:38:40.995Z,69.32
2023-05-07T06:41:08.551Z,69.70
2023-05-07T06:43:36.386Z,70.53
2023-05-07T06:46:03.463Z,67.55
2023-05-07T06:48:30.498Z,67.50
2023-05-07T06:50:58.575Z,67.74
2023-05-07T06:53:26.843Z,67.62
2023-05-07T06:55:53.980Z,67.38
2023-05-07T07:00:48.198Z,67.19
2023-05-07T07:03:15.454Z,67.10
2023-05-07T07:05:43.149Z,67.70
2023-05-07T07:08:11.374Z,64.49
2023-05-07T07:10:38.504Z,68.62
2023-05-07T07:13:05.639Z,62.94
2023-05-07T07:15:32.731Z,64.33
2023-05-07T07:17:59.896Z,64.41
2023-05-07T07:20:27.058Z,64.33
2023-05-07T07:22:54.148Z,66.50
2023-05-07T07:25:21.228Z,63.28
2023-05-07T07:27:48.661Z,68.10
2023-05-07T07:30:16.027Z,66.45
2023-05-07T07:32:43.680Z,63.78
2023-05-07T07:35:11.208Z,65.47
2023-05-07T07:37:38.390Z,64.87
2023-05-07T07:40:06.742Z,64.32
2023-05-07T07:42:33.846Z,62.56
2023-05-07T07:45:02.916Z,63.39
2023-05-07T07:47:30.238Z,64.67
2023-05-07T07:49:57.863Z,63.98
2023-05-07T07:52:24.910Z,65.01
2023-05-07T07:54:51.982Z,64.46
2023-05-07T07:57:19.165Z,63.21
2023-05-07T07:59:46.418Z,63.36
2023-05-07T08:02:16.078Z,61.03
2023-05-07T08:04:44.293Z,61.51
2023-05-07T08:07:12.027Z,60.52
2023-05-07T08:09:43.153Z,62.02
2023-05-07T08:12:10.374Z,62.22
2023-05-07T08:14:38.020Z,59.96
2023-05-07T08:17:05.367Z,60.12
2023-05-07T08:19:32.512Z,60.55
2023-05-07T08:21:59.728Z,61.42
2023-05-07T08:24:26.940Z,62.23
2023-05-07T08:26:54.161Z,62.04
2023-05-07T08:29:21.230Z,60.75
2023-05-07T08:31:48.318Z,59.51
2023-05-07T08:34:15.708Z,62.14
2023-05-07T08:36:43.056Z,60.65
2023-05-07T08:39:10.170Z,60.38
2023-05-07T08:41:38.484Z,63.19
2023-05-07T08:44:12.946Z,61.77
2023-05-07T08:46:42.694Z,61.20
2023-05-07T08:49:10.527Z,60.93
2023-05-07T08:51:37.872Z,60.67
2023-05-07T08:54:06.249Z,60.12
2023-05-07T08:56:33.656Z,60.14
2023-05-07T08:59:00.962Z,58.88
2023-05-07T09:01:28.746Z,60.42
2023-05-07T09:03:55.960Z,58.09
2023-05-07T09:06:23.690Z,60.48
2023-05-07T09:08:54.612Z,60.05
2023-05-07T09:11:23.909Z,55.65
2023-05-07T09:13:57.043Z,54.35
2023-05-07T09:16:28.151Z,57.92
2023-05-07T09:18:59.421Z,55.37
2023-05-07T09:21:26.971Z,56.42
2023-05-07T09:23:56.927Z,52.81
2023-05-07T09:26:29.246Z,52.44
2023-05-07T09:28:56.507Z,56.50
2023-05-07T09:31:24.688Z,56.58
2023-05-07T09:33:53.399Z,57.62
2023-05-07T09:36:20.546Z,58.00
2023-05-07T09:38:52.337Z,55.31
2023-05-07T09:41:21.958Z,56.12
2023-05-07T09:43:56.302Z,56.46
2023-05-07T09:46:32.407Z,54.91
2023-05-07T09:49:00.661Z,51.91
2023-05-07T09:51:53.076Z,52.18
2023-05-07T09:54:20.633Z,54.99
2023-05-07T09:56:54.010Z,55.14
2023-05-07T09:59:25.404Z,53.97
2023-05-07T10:01:57.851Z,50.28
2023-05-07T10:04:27.244Z,47.77
2023-05-07T10:06:56.263Z,51.33
2023-05-07T10:09:23.879Z,51.49
2023-05-07T10:11:51.391Z,50.89
2023-05-07T10:14:20.507Z,51.17
2023-05-07T10:16:48.717Z,49.53
2023-05-07T10:19:17.403Z,52.97
2023-05-07T10:22:00.646Z,49.71
2023-05-07T10:24:38.476Z,52.54
2023-05-07T10:27:15.639Z,49.66
2023-05-07T10:30:16.962Z,49.07
2023-05-07T10:32:52.462Z,49.86
2023-05-07T10:35:30.460Z,50.17
2023-05-07T10:37:57.820Z,52.49
2023-05-07T10:40:25.398Z,52.16
2023-05-07T10:43:03.385Z,50.01
2023-05-07T10:45:30.777Z,47.78
2023-05-07T10:50:48.136Z,47.79
2023-05-07T10:53:18.200Z,45.65
2023-05-07T10:56:12.487Z,47.58
2023-05-07T10:58:39.537Z,41.97
2023-05-07T11:01:09.594Z,44.22
2023-05-07T11:03:36.838Z,44.93
2023-05-07T11:06:21.979Z,47.14
2023-05-07T11:08:59.343Z,49.70
2023-05-07T11:11:56.701Z,52.70
2023-05-07T11:14:42.454Z,46.14
2023-05-07T11:17:11.109Z,47.05
2023-05-07T11:19:53.987Z,49.13
2023-05-07T11:22:40.885Z,50.92
2023-05-07T11:25:08.806Z,51.79
2023-05-07T11:27:36.631Z,50.20
2023-05-07T11:30:04.339Z,49.34
2023-05-07T11:32:33.520Z,49.19
2023-05-07T11:35:02.073Z,49.96
2023-05-07T11:37:31.311Z,47.84
2023-05-07T11:40:11.642Z,49.47
2023-05-07T11:42:43.433Z,49.85
2023-05-07T11:45:11.668Z,48.42
2023-05-07T11:47:39.063Z,44.26
2023-05-07T11:50:09.227Z,45.37
2023-05-07T11:52:36.958Z,47.79
2023-05-07T11:55:05.706Z,46.07
2023-05-07T11:57:35.605Z,42.97
2023-05-07T12:00:05.647Z,45.56
2023-05-07T12:02:33.061Z,44.42
2023-05-07T12:05:03.502Z,46.87
2023-05-07T12:07:30.739Z,45.05
2023-05-07T12:09:57.838Z,43.74
2023-05-07T12:12:25.029Z,43.87
2023-05-07T12:14:53.142Z,39.15
2023-05-07T12:17:20.656Z,43.29
2023-05-07T12:20:00.036Z,44.80
2023-05-07T12:22:27.514Z,39.91
2023-05-07T12:25:04.093Z,40.37
2023-05-07T12:27:31.572Z,40.10
2023-05-07T12:30:00.299Z,42.00
2023-05-07T12:32:27.492Z,42.84
2023-05-07T12:34:54.661Z,45.85
2023-05-07T12:37:31.159Z,46.31
2023-05-07T12:40:21.547Z,44.33
2023-05-07T12:42:53.608Z,43.93
2023-05-07T12:45:21.384Z,44.24
2023-05-07T12:47:49.542Z,43.38
2023-05-07T12:50:17.937Z,43.50
2023-05-07T12:52:48.474Z,41.01
2023-05-07T12:55:17.836Z,41.09
2023-05-07T12:57:51.529Z,41.86
2023-05-07T13:00:38.007Z,39.40
2023-05-07T13:03:05.897Z,38.23
2023-05-07T13:05:36.307Z,38.05
2023-05-07T13:08:03.466Z,36.50
2023-05-07T13:10:30.805Z,35.68
2023-05-07T13:12:58.212Z,40.99
2023-05-07T13:15:26.841Z,41.87
2023-05-07T13:17:56.955Z,43.06
2023-05-07T13:20:24.309Z,42.84
2023-05-07T13:22:51.584Z,44.44
2023-05-07T13:25:18.907Z,44.59
2023-05-07T13:28:06.557Z,40.26
2023-05-07T13:30:37.838Z,39.72
2023-05-07T13:33:09.603Z,37.25
2023-05-07T13:35:36.975Z,38.55
2023-05-07T13:38:04.262Z,38.73
2023-05-07T13:40:31.721Z,40.90
2023-05-07T13:43:01.708Z,37.42
2023-05-07T13:45:30.784Z,39.53
2023-05-07T13:47:58.372Z,37.22
2023-05-07T13:50:27.796Z,36.28
2023-05-07T13:52:54.949Z,39.36
2023-05-07T13:55:25.104Z,37.44
2023-05-07T13:58:07.682Z,38.04
2023-05-07T14:00:35.395Z,35.54
2023-05-07T14:03:02.937Z,37.18
2023-05-07T14:05:30.126Z,39.07
2023-05-07T14:08:02.974Z,41.58
2023-05-07T14:10:30.501Z,41.23
2023-05-07T14:12:57.986Z,40.09
2023-05-07T14:15:25.810Z,37.13
2023-05-07T14:17:53.011Z,40.62
2023-05-07T14:20:20.359Z,40.20
2023-05-07T14:22:47.443Z,40.68
2023-05-07T14:25:17.573Z,39.12
2023-05-07T14:27:44.884Z,39.30
2023-05-07T14:30:12.898Z,39.45
2023-05-07T14:32:40.067Z,40.61
2023-05-07T14:35:07.736Z,41.75
2023-05-07T14:37:35.033Z,41.92
2023-05-07T14:40:05.748Z,40.52
2023-05-07T14:42:33.141Z,40.33
2023-05-07T14:45:00.323Z,41.38
2023-05-07T14:47:30.253Z,42.04
2023-05-07T14:49:58.329Z,38.03
2023-05-07T14:52:25.680Z,34.73
2023-05-07T14:54:52.763Z,35.56
2023-05-07T14:57:20.352Z,41.47
2023-05-07T14:59:48.088Z,42.69
2023-05-07T15:02:16.146Z,42.04
2023-05-07T15:04:46.728Z,41.93
2023-05-07T15:07:17.453Z,39.56
2023-05-07T15:09:45.699Z,38.51
2023-05-07T15:12:14.471Z,35.27
2023-05-07T15:14:42.108Z,37.84
2023-05-07T15:17:09.302Z,41.84
2023-05-07T15:19:36.465Z,41.41
2023-05-07T15:22:03.756Z,41.70
2023-05-07T15:24:31.710Z,40.02
2023-05-07T15:27:03.662Z,38.15
2023-05-07T15:29:31.269Z,37.45
2023-05-07T15:32:01.494Z,36.62
2023-05-07T15:34:30.353Z,37.51
2023-05-07T15:36:58.260Z,36.38
2023-05-07T15:39:25.699Z,36.91
2023-05-07T15:41:52.795Z,37.14
2023-05-07T15:44:20.074Z,39.26
2023-05-07T15:46:47.137Z,40.77
2023-05-07T15:49:14.225Z,39.64
2023-05-07T15:51:45.002Z,40.92
2023-05-07T15:54:12.527Z,41.51
2023-05-07T15:56:40.091Z,41.73
2023-05-07T15:59:07.795Z,40.03
2023-05-07T16:01:34.921Z,38.62
2023-05-07T16:04:02.365Z,39.68
2023-05-07T16:06:29.434Z,39.29
2023-05-07T16:08:56.566Z,39.92
2023-05-07T16:11:23.655Z,42.60
2023-05-07T16:13:51.098Z,40.63
2023-05-07T16:16:18.238Z,39.27
2023-05-07T16:18:45.308Z,39.95
2023-05-07T16:21:12.895Z,41.43
2023-05-07T16:23:40.384Z,40.30
2023-05-07T16:26:07.852Z,42.03
2023-05-07T16:28:35.231Z,39.73
2023-05-07T16:31:02.340Z,38.52
2023-05-07T16:33:29.476Z,43.05
2023-05-07T16:35:56.575Z,41.50
2023-05-07T16:38:23.674Z,39.90
2023-05-07T16:40:50.756Z,40.70
2023-05-07T16:43:18.117Z,40.37
2023-05-07T16:45:46.642Z,40.56
2023-05-07T16:48:13.726Z,41.60
2023-05-07T16:50:41.639Z,41.33
2023-05-07T16:53:10.574Z,40.75
2023-05-07T16:55:41.482Z,39.07
2023-05-07T16:58:11.243Z,40.73
2023-05-07T17:00:49.911Z,38.23
2023-05-07T17:03:18.881Z,39.79
2023-05-07T17:05:46.583Z,39.50
2023-05-07T17:08:14.174Z,39.35
2023-05-07T17:10:42.380Z,42.26
2023-05-07T17:13:09.588Z,41.11
2023-05-07T17:15:36.784Z,43.17
2023-05-07T17:18:04.040Z,43.59
2023-05-07T17:20:31.302Z,42.83
2023-05-07T17:22:58.395Z,42.87
2023-05-07T17:25:25.857Z,42.92
2023-05-07T17:27:53.101Z,43.35
2023-05-07T17:30:20.866Z,44.20
2023-05-07T17:32:48.128Z,45.21
2023-05-07T17:35:15.273Z,44.33
2023-05-07T17:37:46.777Z,45.52
2023-05-07T17:40:14.372Z,44.75
2023-05-07T17:42:41.548Z,46.64
2023-05-07T17:45:09.466Z,45.57
2023-05-07T17:47:36.534Z,45.45
2023-05-07T17:50:09.017Z,45.67
2023-05-07T17:52:37.608Z,47.11
2023-05-07T17:55:05.737Z,45.68
2023-05-07T17:57:35.342Z,44.87
2023-05-07T18:00:12.544Z,44.54
2023-05-07T18:02:41.156Z,45.76
2023-05-07T18:05:09.447Z,45.98
2023-05-07T18:07:37.468Z,47.17
2023-05-07T18:10:04.978Z,47.84
2023-05-07T18:12:32.220Z,47.54
2023-05-07T18:14:59.525Z,47.99
2023-05-07T18:17:27.785Z,47.92
2023-05-07T18:19:55.481Z,48.53
2023-05-07T18:22:23.984Z,48.59
2023-05-07T18:24:52.267Z,49.84
2023-05-07T18:27:19.461Z,50.25
2023-05-07T18:29:46.493Z,50.86
2023-05-07T18:32:16.746Z,49.58
2023-05-07T18:34:43.863Z,47.44
2023-05-07T18:37:10.922Z,48.78
2023-05-07T18:39:37.980Z,48.26
2023-05-07T18:42:05.380Z,50.23
2023-05-07T18:44:38.263Z,48.15
2023-05-07T18:47:06.282Z,50.57
2023-05-07T18:49:37.175Z,51.01
2023-05-07T18:52:04.557Z,51.55
2023-05-07T18:54:31.692Z,52.29
2023-05-07T18:56:58.814Z,52.75
2023-05-07T18:59:25.882Z,54.32
2023-05-07T19:01:53.281Z,52.34
2023-05-07T19:04:20.633Z,50.26
2023-05-07T19:06:47.825Z,49.80
2023-05-07T19:09:17.125Z,49.63
2023-05-07T19:11:44.286Z,50.29
2023-05-07T19:14:11.363Z,51.84
2023-05-07T19:16:38.707Z,51.63
2023-05-07T19:19:06.608Z,52.57
2023-05-07T19:21:33.831Z,51.56
2023-05-07T19:24:00.912Z,51.58
2023-05-07T19:26:28.000Z,50.72
2023-05-07T19:29:12.499Z,51.66
2023-05-07T19:31:43.926Z,53.23
2023-05-07T19:34:13.124Z,53.29
2023-05-07T19:36:40.674Z,52.35
2023-05-07T19:39:07.756Z,52.90
2023-05-07T19:41:35.042Z,52.52
2023-05-07T19:44:02.163Z,52.16
2023-05-07T19:46:29.257Z,52.88
2023-05-07T19:48:56.356Z,53.90
2023-05-07T19:51:23.673Z,54.97
2023-05-07T19:53:51.453Z,55.55
2023-05-07T19:56:18.519Z,56.77
2023-05-07T19:58:45.721Z,56.66
2023-05-07T20:01:12.758Z,56.30
2023-05-07T20:03:39.955Z,56.67
2023-05-07T20:06:07.125Z,57.49
2023-05-07T20:08:34.263Z,57.11
2023-05-07T20:11:01.597Z,56.75
2023-05-07T20:13:28.791Z,57.49
2023-05-07T20:16:02.520Z,57.12
2023-05-07T20:18:29.869Z,57.98
2023-05-07T20:20:57.142Z,57.09
2023-05-07T20:23:24.586Z,58.86
2023-05-07T20:25:51.949Z,59.92
2023-05-07T20:28:19.189Z,59.71
2023-05-07T20:30:48.627Z,58.90
2023-05-07T20:33:16.063Z,59.04
2023-05-07T20:35:43.170Z,58.77
2023-05-07T20:38:10.311Z,59.36
2023-05-07T20:40:37.977Z,59.09
2023-05-07T20:43:06.564Z,60.27
2023-05-07T20:45:33.719Z,60.49
2023-05-07T20:48:01.080Z,59.73
2023-05-07T20:50:28.702Z,60.39
2023-05-07T20:52:55.887Z,60.14
2023-05-07T20:55:23.370Z,58.18
2023-05-07T20:57:50.524Z,58.82
2023-05-07T21:00:18.250Z,57.71
2023-05-07T21:02:45.934Z,58.89
2023-05-07T21:05:13.089Z,58.81
2023-05-07T21:07:40.212Z,60.06
2023-05-07T21:10:08.324Z,59.87
2023-05-07T21:12:35.653Z,59.93
2023-05-07T21:15:02.839Z,59.17
2023-05-07T21:17:31.726Z,59.92
2023-05-07T21:19:58.920Z,61.05
2023-05-07T21:22:26.081Z,60.36
2023-05-07T21:24:53.162Z,59.22
2023-05-07T21:27:20.293Z,59.44
2023-05-07T21:29:47.479Z,59.95
2023-05-07T21:32:17.223Z,59.95
2023-05-07T21:34:44.242Z,60.86
2023-05-07T21:37:11.325Z,61.25
2023-05-07T21:39:38.438Z,60.16
2023-05-07T21:42:05.537Z,61.06
2023-05-07T21:44:32.674Z,60.69
2023-05-07T21:47:02.946Z,62.09
2023-05-07T21:49:30.139Z,62.14
2023-05-07T21:51:57.172Z,61.48
2023-05-07T21:54:26.513Z,61.20
2023-05-07T21:56:53.727Z,61.83
2023-05-07T21:59:20.813Z,61.17
2023-05-07T22:01:47.999Z,60.38
2023-05-07T22:04:15.110Z,62.08
2023-05-07T22:06:42.192Z,62.16
2023-05-07T22:09:09.374Z,62.83
2023-05-07T22:11:36.466Z,62.88
2023-05-07T22:14:03.610Z,63.09
2023-05-07T22:16:31.031Z,62.85
2023-05-07T22:18:58.145Z,63.11
2023-05-07T22:21:25.514Z,63.57
2023-05-07T22:23:52.613Z,64.11
2023-05-07T22:26:19.675Z,63.00
2023-05-07T22:28:46.748Z,61.98
2023-05-07T22:31:13.950Z,61.09
2023-05-07T22:33:41.099Z,60.44
2023-05-07T22:36:08.513Z,61.86
2023-05-07T22:38:35.734Z,62.38
2023-05-07T22:41:02.800Z,63.16
2023-05-07T22:43:29.842Z,63.66
2023-05-07T22:46:01.306Z,63.62
2023-05-07T22:48:35.005Z,64.67
2023-05-07T22:51:02.073Z,63.43
2023-05-07T22:53:29.099Z,63.38
2023-05-07T22:55:56.183Z,63.75
2023-05-07T22:58:23.730Z,63.58
2023-05-07T23:00:50.836Z,63.32
2023-05-07T23:03:18.099Z,65.01
2023-05-07T23:05:45.432Z,63.67
2023-05-07T23:08:12.737Z,63.89
2023-05-07T23:10:39.893Z,63.78
2023-05-07T23:13:09.301Z,63.85
2023-05-07T23:15:36.422Z,64.67
2023-05-07T23:18:03.581Z,64.36
2023-05-07T23:20:31.442Z,64.34
2023-05-07T23:22:58.649Z,62.57
2023-05-07T23:25:25.692Z,61.43
2023-05-07T23:27:52.844Z,62.95
2023-05-07T23:30:20.059Z,63.99
2023-05-07T23:32:47.297Z,63.80
2023-05-07T23:35:14.437Z,63.53
2023-05-07T23:37:41.667Z,63.11
2023-05-07T23:40:09.115Z,64.15
2023-05-07T23:42:36.519Z,63.05
2023-05-07T23:45:04.486Z,63.01
2023-05-07T23:47:31.650Z,62.88
2023-05-07T23:49:58.732Z,62.84
2023-05-07T23:52:26.115Z,63.33
2023-05-07T23:54:53.174Z,62.93
2023-05-07T23:57:20.244Z,64.31
2023-05-07T23:59:47.317Z,62.81
